sensor_id;sensor_type;location;lat;lon;timestamp;P1;durP1;ratioP1;P2;durP2;ratioP2
75698;SDS011;64313;51.018;13.742;2023-07-13T00:02:07;3.15;;;1.40;;
75698;SDS011;64313;51.018;13.742;2023-07-13T00:04:33;3.95;;;1.30;;
75698;SDS011;64313;51.018;13.742;2023-07-13T00:06:58;3.95;;;1.40;;
75698;SDS011;64313;51.018;13.742;2023-07-13T00:09:24;5.00;;;1.80;;
75698;SDS011;64313;51.018;13.742;2023-07-13T00:11:50;3.78;;;1.58;;
75698;SDS011;64313;51.018;13.742;2023-07-13T00:14:17;3.03;;;1.20;;
75698;SDS011;64313;51.018;13.742;2023-07-13T00:16:43;3.42;;;1.35;;
75698;SDS011;64313;51.018;13.742;2023-07-13T00:19:10;3.55;;;1.48;;
75698;SDS011;64313;51.018;13.742;2023-07-13T00:21:36;3.20;;;1.30;;
75698;SDS011;64313;51.018;13.742;2023-07-13T00:24:02;3.28;;;1.10;;
75698;SDS011;64313;51.018;13.742;2023-07-13T00:26:28;4.97;;;1.42;;
75698;SDS011;64313;51.018;13.742;2023-07-13T00:28:53;4.25;;;1.30;;
75698;SDS011;64313;51.018;13.742;2023-07-13T00:31:18;2.97;;;1.38;;
75698;SDS011;64313;51.018;13.742;2023-07-13T00:33:45;3.70;;;1.45;;
75698;SDS011;64313;51.018;13.742;2023-07-13T00:36:11;3.72;;;1.42;;
75698;SDS011;64313;51.018;13.742;2023-07-13T00:38:36;3.75;;;1.40;;
75698;SDS011;64313;51.018;13.742;2023-07-13T00:41:03;3.83;;;1.63;;
75698;SDS011;64313;51.018;13.742;2023-07-13T00:43:29;3.55;;;1.40;;
75698;SDS011;64313;51.018;13.742;2023-07-13T00:48:21;4.33;;;1.30;;
75698;SDS011;64313;51.018;13.742;2023-07-13T00:50:52;5.43;;;1.50;;
75698;SDS011;64313;51.018;13.742;2023-07-13T00:53:20;4.72;;;1.40;;
75698;SDS011;64313;51.018;13.742;2023-07-13T00:55:46;3.45;;;1.60;;
75698;SDS011;64313;51.018;13.742;2023-07-13T00:58:15;2.80;;;1.30;;
75698;SDS011;64313;51.018;13.742;2023-07-13T01:00:40;5.35;;;1.80;;
75698;SDS011;64313;51.018;13.742;2023-07-13T01:03:06;4.15;;;1.50;;
75698;SDS011;64313;51.018;13.742;2023-07-13T01:05:33;5.28;;;1.70;;
75698;SDS011;64313;51.018;13.742;2023-07-13T01:07:59;4.57;;;1.50;;
75698;SDS011;64313;51.018;13.742;2023-07-13T01:10:26;3.65;;;1.50;;
75698;SDS011;64313;51.018;13.742;2023-07-13T01:12:52;3.70;;;1.63;;
75698;SDS011;64313;51.018;13.742;2023-07-13T01:15:34;3.95;;;1.70;;
75698;SDS011;64313;51.018;13.742;2023-07-13T01:18:04;4.50;;;1.55;;
75698;SDS011;64313;51.018;13.742;2023-07-13T01:20:31;4.80;;;1.40;;
75698;SDS011;64313;51.018;13.742;2023-07-13T01:23:05;6.57;;;1.98;;
75698;SDS011;64313;51.018;13.742;2023-07-13T01:25:32;4.95;;;1.90;;
75698;SDS011;64313;51.018;13.742;2023-07-13T01:27:58;6.00;;;1.50;;
75698;SDS011;64313;51.018;13.742;2023-07-13T01:30:24;6.05;;;1.63;;
75698;SDS011;64313;51.018;13.742;2023-07-13T01:32:49;5.82;;;1.60;;
75698;SDS011;64313;51.018;13.742;2023-07-13T01:35:14;4.18;;;1.50;;
75698;SDS011;64313;51.018;13.742;2023-07-13T01:37:42;4.28;;;1.75;;
75698;SDS011;64313;51.018;13.742;2023-07-13T01:40:10;4.68;;;1.50;;
75698;SDS011;64313;51.018;13.742;2023-07-13T01:42:37;4.28;;;1.60;;
75698;SDS011;64313;51.018;13.742;2023-07-13T01:45:03;6.35;;;1.80;;
75698;SDS011;64313;51.018;13.742;2023-07-13T01:47:29;4.43;;;1.40;;
75698;SDS011;64313;51.018;13.742;2023-07-13T01:49:56;4.72;;;1.65;;
75698;SDS011;64313;51.018;13.742;2023-07-13T01:52:21;3.15;;;1.52;;
75698;SDS011;64313;51.018;13.742;2023-07-13T01:54:47;5.07;;;1.52;;
75698;SDS011;64313;51.018;13.742;2023-07-13T01:57:12;3.67;;;1.35;;
75698;SDS011;64313;51.018;13.742;2023-07-13T01:59:37;3.63;;;1.50;;
75698;SDS011;64313;51.018;13.742;2023-07-13T02:02:05;4.88;;;1.75;;
75698;SDS011;64313;51.018;13.742;2023-07-13T02:04:30;4.22;;;1.60;;
75698;SDS011;64313;51.018;13.742;2023-07-13T02:06:55;3.58;;;1.55;;
75698;SDS011;64313;51.018;13.742;2023-07-13T02:09:21;4.32;;;1.90;;
75698;SDS011;64313;51.018;13.742;2023-07-13T02:11:47;4.60;;;1.50;;
75698;SDS011;64313;51.018;13.742;2023-07-13T02:14:13;4.07;;;1.50;;
75698;SDS011;64313;51.018;13.742;2023-07-13T02:16:40;4.68;;;1.55;;
75698;SDS011;64313;51.018;13.742;2023-07-13T02:19:05;4.80;;;1.80;;
75698;SDS011;64313;51.018;13.742;2023-07-13T02:21:31;3.47;;;1.60;;
75698;SDS011;64313;51.018;13.742;2023-07-13T02:23:56;3.72;;;1.60;;
75698;SDS011;64313;51.018;13.742;2023-07-13T02:26:22;5.18;;;1.50;;
75698;SDS011;64313;51.018;13.742;2023-07-13T02:28:48;3.00;;;1.30;;
75698;SDS011;64313;51.018;13.742;2023-07-13T02:31:13;3.65;;;1.63;;
75698;SDS011;64313;51.018;13.742;2023-07-13T02:33:40;3.15;;;1.40;;
75698;SDS011;64313;51.018;13.742;2023-07-13T02:36:06;3.22;;;1.33;;
75698;SDS011;64313;51.018;13.742;2023-07-13T02:38:32;4.15;;;1.80;;
75698;SDS011;64313;51.018;13.742;2023-07-13T02:41:02;4.72;;;1.60;;
75698;SDS011;64313;51.018;13.742;2023-07-13T02:43:28;3.25;;;1.40;;
75698;SDS011;64313;51.018;13.742;2023-07-13T02:45:54;3.60;;;1.60;;
75698;SDS011;64313;51.018;13.742;2023-07-13T02:48:20;3.08;;;1.40;;
75698;SDS011;64313;51.018;13.742;2023-07-13T02:50:45;3.97;;;1.35;;
75698;SDS011;64313;51.018;13.742;2023-07-13T02:53:11;4.40;;;1.65;;
75698;SDS011;64313;51.018;13.742;2023-07-13T02:55:36;3.55;;;1.63;;
75698;SDS011;64313;51.018;13.742;2023-07-13T02:58:02;3.28;;;1.60;;
75698;SDS011;64313;51.018;13.742;2023-07-13T03:00:27;4.07;;;1.60;;
75698;SDS011;64313;51.018;13.742;2023-07-13T03:02:53;5.13;;;1.40;;
75698;SDS011;64313;51.018;13.742;2023-07-13T03:05:22;3.78;;;1.65;;
75698;SDS011;64313;51.018;13.742;2023-07-13T03:07:49;4.55;;;1.38;;
75698;SDS011;64313;51.018;13.742;2023-07-13T03:10:14;3.85;;;1.40;;
75698;SDS011;64313;51.018;13.742;2023-07-13T03:12:46;4.95;;;1.63;;
75698;SDS011;64313;51.018;13.742;2023-07-13T03:15:21;3.15;;;1.73;;
75698;SDS011;64313;51.018;13.742;2023-07-13T03:17:47;3.97;;;1.80;;
75698;SDS011;64313;51.018;13.742;2023-07-13T03:20:14;4.25;;;1.63;;
75698;SDS011;64313;51.018;13.742;2023-07-13T03:22:39;3.97;;;1.70;;
75698;SDS011;64313;51.018;13.742;2023-07-13T03:25:04;3.75;;;1.48;;
75698;SDS011;64313;51.018;13.742;2023-07-13T03:27:30;5.72;;;1.70;;
75698;SDS011;64313;51.018;13.742;2023-07-13T03:29:55;3.35;;;1.35;;
75698;SDS011;64313;51.018;13.742;2023-07-13T03:32:21;3.67;;;1.60;;
75698;SDS011;64313;51.018;13.742;2023-07-13T03:34:47;5.45;;;1.63;;
75698;SDS011;64313;51.018;13.742;2023-07-13T03:37:13;3.85;;;1.45;;
75698;SDS011;64313;51.018;13.742;2023-07-13T03:39:39;4.53;;;1.75;;
75698;SDS011;64313;51.018;13.742;2023-07-13T03:42:05;5.05;;;1.90;;
75698;SDS011;64313;51.018;13.742;2023-07-13T03:44:31;4.18;;;1.73;;
75698;SDS011;64313;51.018;13.742;2023-07-13T03:46:57;4.55;;;1.85;;
75698;SDS011;64313;51.018;13.742;2023-07-13T03:49:22;4.03;;;1.40;;
75698;SDS011;64313;51.018;13.742;2023-07-13T03:51:48;3.47;;;1.58;;
75698;SDS011;64313;51.018;13.742;2023-07-13T03:54:13;4.80;;;1.63;;
75698;SDS011;64313;51.018;13.742;2023-07-13T03:56:38;4.78;;;1.50;;
75698;SDS011;64313;51.018;13.742;2023-07-13T03:59:06;4.53;;;2.08;;
75698;SDS011;64313;51.018;13.742;2023-07-13T04:01:31;3.97;;;1.73;;
75698;SDS011;64313;51.018;13.742;2023-07-13T04:03:57;3.90;;;1.75;;
75698;SDS011;64313;51.018;13.742;2023-07-13T04:06:26;4.40;;;1.80;;
75698;SDS011;64313;51.018;13.742;2023-07-13T04:08:53;3.85;;;1.73;;
75698;SDS011;64313;51.018;13.742;2023-07-13T04:11:20;4.40;;;1.90;;
75698;SDS011;64313;51.018;13.742;2023-07-13T04:13:47;4.45;;;1.80;;
75698;SDS011;64313;51.018;13.742;2023-07-13T04:16:16;4.38;;;2.10;;
75698;SDS011;64313;51.018;13.742;2023-07-13T04:18:42;4.70;;;1.88;;
75698;SDS011;64313;51.018;13.742;2023-07-13T04:21:08;5.05;;;1.75;;
75698;SDS011;64313;51.018;13.742;2023-07-13T04:23:34;5.28;;;2.20;;
75698;SDS011;64313;51.018;13.742;2023-07-13T04:26:00;4.35;;;1.73;;
75698;SDS011;64313;51.018;13.742;2023-07-13T04:28:26;4.50;;;2.00;;
75698;SDS011;64313;51.018;13.742;2023-07-13T04:30:52;4.20;;;2.10;;
75698;SDS011;64313;51.018;13.742;2023-07-13T04:33:18;3.50;;;1.80;;
75698;SDS011;64313;51.018;13.742;2023-07-13T04:35:47;4.38;;;1.95;;
75698;SDS011;64313;51.018;13.742;2023-07-13T04:38:21;5.95;;;1.95;;
75698;SDS011;64313;51.018;13.742;2023-07-13T04:40:49;4.40;;;1.90;;
75698;SDS011;64313;51.018;13.742;2023-07-13T04:43:15;4.20;;;1.65;;
75698;SDS011;64313;51.018;13.742;2023-07-13T04:45:40;4.07;;;1.85;;
75698;SDS011;64313;51.018;13.742;2023-07-13T04:48:06;6.38;;;1.90;;
75698;SDS011;64313;51.018;13.742;2023-07-13T04:50:31;4.85;;;1.70;;
75698;SDS011;64313;51.018;13.742;2023-07-13T04:52:56;4.80;;;2.00;;
75698;SDS011;64313;51.018;13.742;2023-07-13T04:55:21;5.32;;;1.80;;
75698;SDS011;64313;51.018;13.742;2023-07-13T04:57:47;4.57;;;1.90;;
75698;SDS011;64313;51.018;13.742;2023-07-13T05:00:13;5.55;;;2.10;;
75698;SDS011;64313;51.018;13.742;2023-07-13T05:02:40;6.35;;;1.98;;
75698;SDS011;64313;51.018;13.742;2023-07-13T05:05:09;4.10;;;1.90;;
75698;SDS011;64313;51.018;13.742;2023-07-13T05:07:34;5.25;;;1.70;;
75698;SDS011;64313;51.018;13.742;2023-07-13T05:09:59;3.92;;;1.92;;
75698;SDS011;64313;51.018;13.742;2023-07-13T05:12:25;4.70;;;2.00;;
75698;SDS011;64313;51.018;13.742;2023-07-13T05:14:51;4.30;;;1.98;;
75698;SDS011;64313;51.018;13.742;2023-07-13T05:17:16;4.30;;;1.77;;
75698;SDS011;64313;51.018;13.742;2023-07-13T05:19:42;5.43;;;1.88;;
75698;SDS011;64313;51.018;13.742;2023-07-13T05:22:08;4.20;;;2.08;;
75698;SDS011;64313;51.018;13.742;2023-07-13T05:24:33;5.72;;;2.05;;
75698;SDS011;64313;51.018;13.742;2023-07-13T05:26:59;5.78;;;2.13;;
75698;SDS011;64313;51.018;13.742;2023-07-13T05:29:24;4.70;;;1.95;;
75698;SDS011;64313;51.018;13.742;2023-07-13T05:31:50;4.72;;;2.00;;
75698;SDS011;64313;51.018;13.742;2023-07-13T05:34:15;6.03;;;2.20;;
75698;SDS011;64313;51.018;13.742;2023-07-13T05:36:41;5.75;;;2.22;;
75698;SDS011;64313;51.018;13.742;2023-07-13T05:39:06;4.57;;;1.80;;
75698;SDS011;64313;51.018;13.742;2023-07-13T05:41:32;5.15;;;2.10;;
75698;SDS011;64313;51.018;13.742;2023-07-13T05:43:57;5.05;;;2.03;;
75698;SDS011;64313;51.018;13.742;2023-07-13T05:46:22;6.22;;;2.10;;
75698;SDS011;64313;51.018;13.742;2023-07-13T05:48:48;6.07;;;2.28;;
75698;SDS011;64313;51.018;13.742;2023-07-13T05:51:13;4.60;;;2.10;;
75698;SDS011;64313;51.018;13.742;2023-07-13T05:53:39;6.82;;;2.33;;
75698;SDS011;64313;51.018;13.742;2023-07-13T05:56:04;4.72;;;2.00;;
75698;SDS011;64313;51.018;13.742;2023-07-13T05:58:30;8.85;;;2.10;;
75698;SDS011;64313;51.018;13.742;2023-07-13T06:01:03;7.47;;;2.20;;
75698;SDS011;64313;51.018;13.742;2023-07-13T06:03:34;5.88;;;2.08;;
75698;SDS011;64313;51.018;13.742;2023-07-13T06:06:00;5.65;;;2.10;;
75698;SDS011;64313;51.018;13.742;2023-07-13T06:08:26;5.68;;;2.20;;
75698;SDS011;64313;51.018;13.742;2023-07-13T06:10:52;4.70;;;1.90;;
75698;SDS011;64313;51.018;13.742;2023-07-13T06:13:17;4.70;;;1.92;;
75698;SDS011;64313;51.018;13.742;2023-07-13T06:15:47;4.43;;;1.65;;
75698;SDS011;64313;51.018;13.742;2023-07-13T06:18:14;4.38;;;2.00;;
75698;SDS011;64313;51.018;13.742;2023-07-13T06:20:39;6.20;;;1.67;;
75698;SDS011;64313;51.018;13.742;2023-07-13T06:23:04;6.10;;;1.85;;
75698;SDS011;64313;51.018;13.742;2023-07-13T06:25:30;4.45;;;1.60;;
75698;SDS011;64313;51.018;13.742;2023-07-13T06:27:55;5.63;;;1.95;;
75698;SDS011;64313;51.018;13.742;2023-07-13T06:30:21;4.32;;;1.73;;
75698;SDS011;64313;51.018;13.742;2023-07-13T06:32:46;4.50;;;1.90;;
75698;SDS011;64313;51.018;13.742;2023-07-13T06:35:11;4.50;;;2.08;;
75698;SDS011;64313;51.018;13.742;2023-07-13T06:37:38;6.20;;;2.10;;
75698;SDS011;64313;51.018;13.742;2023-07-13T06:40:04;5.82;;;2.30;;
75698;SDS011;64313;51.018;13.742;2023-07-13T06:42:29;4.63;;;1.75;;
75698;SDS011;64313;51.018;13.742;2023-07-13T06:44:55;4.60;;;1.80;;
75698;SDS011;64313;51.018;13.742;2023-07-13T06:47:20;4.85;;;2.00;;
75698;SDS011;64313;51.018;13.742;2023-07-13T06:49:46;3.53;;;1.58;;
75698;SDS011;64313;51.018;13.742;2023-07-13T06:52:11;5.63;;;2.20;;
75698;SDS011;64313;51.018;13.742;2023-07-13T06:54:36;4.97;;;2.10;;
75698;SDS011;64313;51.018;13.742;2023-07-13T06:57:02;4.93;;;2.00;;
75698;SDS011;64313;51.018;13.742;2023-07-13T06:59:27;3.95;;;2.00;;
75698;SDS011;64313;51.018;13.742;2023-07-13T07:01:52;6.55;;;1.90;;
75698;SDS011;64313;51.018;13.742;2023-07-13T07:04:18;4.65;;;1.83;;
75698;SDS011;64313;51.018;13.742;2023-07-13T07:06:43;4.40;;;1.90;;
75698;SDS011;64313;51.018;13.742;2023-07-13T07:09:08;4.78;;;1.70;;
75698;SDS011;64313;51.018;13.742;2023-07-13T07:11:34;4.43;;;2.00;;
75698;SDS011;64313;51.018;13.742;2023-07-13T07:13:59;5.13;;;1.85;;
75698;SDS011;64313;51.018;13.742;2023-07-13T07:16:24;5.38;;;1.60;;
75698;SDS011;64313;51.018;13.742;2023-07-13T07:18:50;4.82;;;1.83;;
75698;SDS011;64313;51.018;13.742;2023-07-13T07:21:15;3.83;;;1.63;;
75698;SDS011;64313;51.018;13.742;2023-07-13T07:23:41;4.00;;;1.40;;
75698;SDS011;64313;51.018;13.742;2023-07-13T07:26:07;5.40;;;1.50;;
75698;SDS011;64313;51.018;13.742;2023-07-13T07:28:34;4.05;;;1.50;;
75698;SDS011;64313;51.018;13.742;2023-07-13T07:31:00;4.65;;;1.60;;
75698;SDS011;64313;51.018;13.742;2023-07-13T07:33:25;3.72;;;1.50;;
75698;SDS011;64313;51.018;13.742;2023-07-13T07:35:51;6.68;;;1.70;;
75698;SDS011;64313;51.018;13.742;2023-07-13T07:38:16;5.18;;;1.80;;
75698;SDS011;64313;51.018;13.742;2023-07-13T07:40:42;4.57;;;1.40;;
75698;SDS011;64313;51.018;13.742;2023-07-13T07:43:07;4.22;;;1.60;;
75698;SDS011;64313;51.018;13.742;2023-07-13T07:45:34;5.30;;;1.88;;
75698;SDS011;64313;51.018;13.742;2023-07-13T07:47:59;4.45;;;1.75;;
75698;SDS011;64313;51.018;13.742;2023-07-13T07:50:25;5.03;;;1.60;;
75698;SDS011;64313;51.018;13.742;2023-07-13T07:52:51;3.35;;;1.45;;
75698;SDS011;64313;51.018;13.742;2023-07-13T07:55:16;4.50;;;1.65;;
75698;SDS011;64313;51.018;13.742;2023-07-13T07:57:42;4.63;;;1.60;;
75698;SDS011;64313;51.018;13.742;2023-07-13T08:00:08;4.13;;;1.60;;
75698;SDS011;64313;51.018;13.742;2023-07-13T08:02:39;5.88;;;1.88;;
75698;SDS011;64313;51.018;13.742;2023-07-13T08:05:06;3.35;;;1.58;;
75698;SDS011;64313;51.018;13.742;2023-07-13T08:07:33;5.25;;;2.10;;
75698;SDS011;64313;51.018;13.742;2023-07-13T08:09:58;4.03;;;1.30;;
75698;SDS011;64313;51.018;13.742;2023-07-13T08:12:24;4.57;;;1.70;;
75698;SDS011;64313;51.018;13.742;2023-07-13T08:14:49;3.83;;;1.55;;
75698;SDS011;64313;51.018;13.742;2023-07-13T08:17:21;4.05;;;1.60;;
75698;SDS011;64313;51.018;13.742;2023-07-13T08:19:46;5.75;;;1.65;;
75698;SDS011;64313;51.018;13.742;2023-07-13T08:22:12;4.35;;;1.60;;
75698;SDS011;64313;51.018;13.742;2023-07-13T08:24:37;7.70;;;1.75;;
75698;SDS011;64313;51.018;13.742;2023-07-13T08:27:03;5.07;;;1.45;;
75698;SDS011;64313;51.018;13.742;2023-07-13T08:29:28;5.68;;;1.90;;
75698;SDS011;64313;51.018;13.742;2023-07-13T08:31:57;4.35;;;1.60;;
75698;SDS011;64313;51.018;13.742;2023-07-13T08:34:22;5.00;;;1.50;;
75698;SDS011;64313;51.018;13.742;2023-07-13T08:36:48;3.60;;;1.65;;
75698;SDS011;64313;51.018;13.742;2023-07-13T08:39:13;4.03;;;1.35;;
75698;SDS011;64313;51.018;13.742;2023-07-13T08:41:38;3.15;;;1.20;;
75698;SDS011;64313;51.018;13.742;2023-07-13T08:44:04;2.50;;;1.05;;
75698;SDS011;64313;51.018;13.742;2023-07-13T08:46:36;4.03;;;1.30;;
75698;SDS011;64313;51.018;13.742;2023-07-13T08:49:05;4.80;;;1.20;;
75698;SDS011;64313;51.018;13.742;2023-07-13T08:51:42;4.63;;;1.30;;
75698;SDS011;64313;51.018;13.742;2023-07-13T08:54:18;3.85;;;1.38;;
75698;SDS011;64313;51.018;13.742;2023-07-13T08:56:47;3.88;;;1.50;;
75698;SDS011;64313;51.018;13.742;2023-07-13T08:59:16;5.97;;;1.80;;
75698;SDS011;64313;51.018;13.742;2023-07-13T09:04:29;4.72;;;1.40;;
75698;SDS011;64313;51.018;13.742;2023-07-13T09:07:05;5.20;;;1.75;;
75698;SDS011;64313;51.018;13.742;2023-07-13T09:09:42;3.78;;;1.40;;
75698;SDS011;64313;51.018;13.742;2023-07-13T09:12:35;4.25;;;1.60;;
75698;SDS011;64313;51.018;13.742;2023-07-13T09:15:38;4.88;;;1.67;;
75698;SDS011;64313;51.018;13.742;2023-07-13T09:18:26;3.17;;;1.23;;
75698;SDS011;64313;51.018;13.742;2023-07-13T09:27:18;2.92;;;1.17;;
75698;SDS011;64313;51.018;13.742;2023-07-13T09:30:02;5.30;;;1.38;;
75698;SDS011;64313;51.018;13.742;2023-07-13T09:32:49;3.95;;;1.15;;
75698;SDS011;64313;51.018;13.742;2023-07-13T09:35:19;3.10;;;1.00;;
75698;SDS011;64313;51.018;13.742;2023-07-13T09:37:47;4.32;;;1.20;;
75698;SDS011;64313;51.018;13.742;2023-07-13T09:40:14;4.75;;;1.30;;
75698;SDS011;64313;51.018;13.742;2023-07-13T09:42:48;4.25;;;1.40;;
75698;SDS011;64313;51.018;13.742;2023-07-13T09:45:14;3.58;;;1.20;;
75698;SDS011;64313;51.018;13.742;2023-07-13T09:47:53;4.70;;;1.40;;
75698;SDS011;64313;51.018;13.742;2023-07-13T09:50:24;3.63;;;1.13;;
75698;SDS011;64313;51.018;13.742;2023-07-13T09:52:50;3.58;;;1.20;;
75698;SDS011;64313;51.018;13.742;2023-07-13T09:55:24;4.47;;;1.40;;
75698;SDS011;64313;51.018;13.742;2023-07-13T09:58:04;3.88;;;1.40;;
75698;SDS011;64313;51.018;13.742;2023-07-13T10:03:13;3.50;;;1.10;;
75698;SDS011;64313;51.018;13.742;2023-07-13T10:05:43;3.50;;;1.30;;
75698;SDS011;64313;51.018;13.742;2023-07-13T10:08:21;4.00;;;1.30;;
75698;SDS011;64313;51.018;13.742;2023-07-13T10:13:35;3.63;;;1.50;;
75698;SDS011;64313;51.018;13.742;2023-07-13T10:16:02;4.72;;;1.60;;
75698;SDS011;64313;51.018;13.742;2023-07-13T10:18:39;3.63;;;1.10;;
75698;SDS011;64313;51.018;13.742;2023-07-13T10:21:14;8.10;;;1.60;;
75698;SDS011;64313;51.018;13.742;2023-07-13T10:23:45;4.03;;;1.40;;
75698;SDS011;64313;51.018;13.742;2023-07-13T10:26:16;3.75;;;1.33;;
75698;SDS011;64313;51.018;13.742;2023-07-13T10:28:51;2.78;;;1.20;;
75698;SDS011;64313;51.018;13.742;2023-07-13T10:31:20;3.67;;;1.20;;
75698;SDS011;64313;51.018;13.742;2023-07-13T10:33:46;4.55;;;1.20;;
75698;SDS011;64313;51.018;13.742;2023-07-13T10:38:53;5.53;;;1.30;;
75698;SDS011;64313;51.018;13.742;2023-07-13T10:41:21;7.78;;;1.58;;
75698;SDS011;64313;51.018;13.742;2023-07-13T10:43:52;3.53;;;1.20;;
75698;SDS011;64313;51.018;13.742;2023-07-13T10:48:48;2.78;;;1.00;;
75698;SDS011;64313;51.018;13.742;2023-07-13T10:51:18;3.75;;;1.30;;
75698;SDS011;64313;51.018;13.742;2023-07-13T10:53:47;3.78;;;1.10;;
75698;SDS011;64313;51.018;13.742;2023-07-13T10:56:33;5.97;;;1.27;;
75698;SDS011;64313;51.018;13.742;2023-07-13T10:59:02;3.58;;;1.30;;
75698;SDS011;64313;51.018;13.742;2023-07-13T11:04:17;4.47;;;1.40;;
75698;SDS011;64313;51.018;13.742;2023-07-13T11:06:46;3.95;;;1.25;;
75698;SDS011;64313;51.018;13.742;2023-07-13T11:09:31;5.15;;;1.10;;
75698;SDS011;64313;51.018;13.742;2023-07-13T11:12:00;5.80;;;1.25;;
75698;SDS011;64313;51.018;13.742;2023-07-13T11:14:28;3.08;;;1.20;;
75698;SDS011;64313;51.018;13.742;2023-07-13T11:16:56;3.03;;;1.02;;
75698;SDS011;64313;51.018;13.742;2023-07-13T11:27:34;4.85;;;1.20;;
75698;SDS011;64313;51.018;13.742;2023-07-13T11:30:13;3.15;;;1.10;;
75698;SDS011;64313;51.018;13.742;2023-07-13T11:32:49;5.22;;;1.30;;
75698;SDS011;64313;51.018;13.742;2023-07-13T11:35:19;6.25;;;1.33;;
75698;SDS011;64313;51.018;13.742;2023-07-13T11:37:48;6.07;;;1.33;;
75698;SDS011;64313;51.018;13.742;2023-07-13T11:40:14;7.22;;;1.30;;
75698;SDS011;64313;51.018;13.742;2023-07-13T11:42:40;5.28;;;1.33;;
75698;SDS011;64313;51.018;13.742;2023-07-13T11:45:16;4.95;;;1.55;;
75698;SDS011;64313;51.018;13.742;2023-07-13T11:47:45;6.03;;;1.60;;
75698;SDS011;64313;51.018;13.742;2023-07-13T11:50:20;4.30;;;1.40;;
75698;SDS011;64313;51.018;13.742;2023-07-13T11:52:48;3.50;;;1.20;;
75698;SDS011;64313;51.018;13.742;2023-07-13T11:55:20;4.35;;;1.50;;
75698;SDS011;64313;51.018;13.742;2023-07-13T11:57:51;3.92;;;1.40;;
75698;SDS011;64313;51.018;13.742;2023-07-13T12:00:22;3.83;;;1.20;;
75698;SDS011;64313;51.018;13.742;2023-07-13T12:02:53;4.10;;;1.30;;
75698;SDS011;64313;51.018;13.742;2023-07-13T12:05:21;3.90;;;1.20;;
75698;SDS011;64313;51.018;13.742;2023-07-13T12:07:47;4.57;;;1.30;;
75698;SDS011;64313;51.018;13.742;2023-07-13T12:10:20;4.68;;;1.70;;
75698;SDS011;64313;51.018;13.742;2023-07-13T12:12:57;4.40;;;1.30;;
75698;SDS011;64313;51.018;13.742;2023-07-13T12:15:41;3.65;;;1.10;;
75698;SDS011;64313;51.018;13.742;2023-07-13T12:18:20;3.28;;;1.20;;
75698;SDS011;64313;51.018;13.742;2023-07-13T12:20:49;4.15;;;1.40;;
75698;SDS011;64313;51.018;13.742;2023-07-13T12:26:01;3.72;;;1.50;;
75698;SDS011;64313;51.018;13.742;2023-07-13T12:28:36;4.20;;;1.50;;
75698;SDS011;64313;51.018;13.742;2023-07-13T12:31:04;3.85;;;1.30;;
75698;SDS011;64313;51.018;13.742;2023-07-13T12:33:33;3.47;;;1.20;;
75698;SDS011;64313;51.018;13.742;2023-07-13T12:36:02;4.85;;;1.42;;
75698;SDS011;64313;51.018;13.742;2023-07-13T12:38:30;3.60;;;1.40;;
75698;SDS011;64313;51.018;13.742;2023-07-13T12:40:56;3.92;;;1.30;;
75698;SDS011;64313;51.018;13.742;2023-07-13T12:43:23;4.25;;;1.42;;
75698;SDS011;64313;51.018;13.742;2023-07-13T12:45:56;4.28;;;1.50;;
75698;SDS011;64313;51.018;13.742;2023-07-13T12:48:26;4.57;;;1.35;;
75698;SDS011;64313;51.018;13.742;2023-07-13T12:50:53;5.22;;;1.30;;
75698;SDS011;64313;51.018;13.742;2023-07-13T12:53:21;5.38;;;1.50;;
75698;SDS011;64313;51.018;13.742;2023-07-13T12:55:55;5.72;;;1.40;;
75698;SDS011;64313;51.018;13.742;2023-07-13T12:58:26;4.57;;;1.45;;
75698;SDS011;64313;51.018;13.742;2023-07-13T13:00:54;3.38;;;1.30;;
75698;SDS011;64313;51.018;13.742;2023-07-13T13:03:24;3.88;;;1.40;;
75698;SDS011;64313;51.018;13.742;2023-07-13T13:06:02;4.85;;;1.27;;
75698;SDS011;64313;51.018;13.742;2023-07-13T13:08:49;3.38;;;1.35;;
75698;SDS011;64313;51.018;13.742;2023-07-13T13:11:16;4.47;;;1.40;;
75698;SDS011;64313;51.018;13.742;2023-07-13T13:13:43;7.07;;;1.40;;
75698;SDS011;64313;51.018;13.742;2023-07-13T13:16:14;3.63;;;1.20;;
75698;SDS011;64313;51.018;13.742;2023-07-13T13:18:45;4.97;;;1.25;;
75698;SDS011;64313;51.018;13.742;2023-07-13T13:21:10;3.60;;;1.10;;
75698;SDS011;64313;51.018;13.742;2023-07-13T13:23:36;5.57;;;1.20;;
75698;SDS011;64313;51.018;13.742;2023-07-13T13:26:02;5.38;;;1.30;;
75698;SDS011;64313;51.018;13.742;2023-07-13T13:28:28;6.68;;;1.30;;
75698;SDS011;64313;51.018;13.742;2023-07-13T13:30:54;3.72;;;1.40;;
75698;SDS011;64313;51.018;13.742;2023-07-13T13:33:20;4.57;;;1.20;;
75698;SDS011;64313;51.018;13.742;2023-07-13T13:35:46;3.03;;;1.20;;
75698;SDS011;64313;51.018;13.742;2023-07-13T13:38:17;3.78;;;1.10;;
75698;SDS011;64313;51.018;13.742;2023-07-13T13:40:51;4.05;;;1.27;;
75698;SDS011;64313;51.018;13.742;2023-07-13T13:43:23;4.97;;;1.23;;
75698;SDS011;64313;51.018;13.742;2023-07-13T13:45:55;3.50;;;1.30;;
75698;SDS011;64313;51.018;13.742;2023-07-13T13:48:29;4.95;;;1.30;;
75698;SDS011;64313;51.018;13.742;2023-07-13T13:50:57;4.75;;;1.20;;
75698;SDS011;64313;51.018;13.742;2023-07-13T13:53:24;4.47;;;1.23;;
75698;SDS011;64313;51.018;13.742;2023-07-13T13:55:50;4.28;;;1.20;;
75698;SDS011;64313;51.018;13.742;2023-07-13T13:58:17;4.85;;;1.27;;
75698;SDS011;64313;51.018;13.742;2023-07-13T14:00:42;4.20;;;1.20;;
75698;SDS011;64313;51.018;13.742;2023-07-13T14:03:17;4.43;;;1.30;;
75698;SDS011;64313;51.018;13.742;2023-07-13T14:05:45;4.28;;;1.45;;
75698;SDS011;64313;51.018;13.742;2023-07-13T14:08:12;4.07;;;1.17;;
75698;SDS011;64313;51.018;13.742;2023-07-13T14:10:39;4.13;;;1.45;;
75698;SDS011;64313;51.018;13.742;2023-07-13T14:13:07;3.58;;;1.20;;
75698;SDS011;64313;51.018;13.742;2023-07-13T14:15:42;3.78;;;1.30;;
75698;SDS011;64313;51.018;13.742;2023-07-13T14:18:08;5.38;;;1.45;;
75698;SDS011;64313;51.018;13.742;2023-07-13T14:20:34;5.43;;;1.10;;
75698;SDS011;64313;51.018;13.742;2023-07-13T14:22:59;5.05;;;1.20;;
75698;SDS011;64313;51.018;13.742;2023-07-13T14:25:24;3.75;;;1.38;;
75698;SDS011;64313;51.018;13.742;2023-07-13T14:27:51;3.90;;;1.30;;
75698;SDS011;64313;51.018;13.742;2023-07-13T14:30:24;4.30;;;1.20;;
75698;SDS011;64313;51.018;13.742;2023-07-13T14:32:49;5.15;;;1.30;;
75698;SDS011;64313;51.018;13.742;2023-07-13T14:35:16;3.65;;;1.10;;
75698;SDS011;64313;51.018;13.742;2023-07-13T14:37:43;6.07;;;1.65;;
75698;SDS011;64313;51.018;13.742;2023-07-13T14:40:13;3.30;;;1.17;;
75698;SDS011;64313;51.018;13.742;2023-07-13T14:42:39;5.93;;;1.40;;
75698;SDS011;64313;51.018;13.742;2023-07-13T14:45:05;4.18;;;1.20;;
75698;SDS011;64313;51.018;13.742;2023-07-13T14:47:34;3.65;;;1.35;;
75698;SDS011;64313;51.018;13.742;2023-07-13T14:49:59;3.58;;;1.23;;
75698;SDS011;64313;51.018;13.742;2023-07-13T14:52:25;3.42;;;1.20;;
75698;SDS011;64313;51.018;13.742;2023-07-13T14:54:51;3.45;;;1.20;;
75698;SDS011;64313;51.018;13.742;2023-07-13T14:57:17;4.43;;;1.20;;
75698;SDS011;64313;51.018;13.742;2023-07-13T14:59:44;3.90;;;1.50;;
75698;SDS011;64313;51.018;13.742;2023-07-13T15:02:32;4.97;;;1.30;;
75698;SDS011;64313;51.018;13.742;2023-07-13T15:04:58;3.35;;;1.13;;
75698;SDS011;64313;51.018;13.742;2023-07-13T15:07:23;4.55;;;1.38;;
75698;SDS011;64313;51.018;13.742;2023-07-13T15:09:49;3.97;;;1.25;;
75698;SDS011;64313;51.018;13.742;2023-07-13T15:12:15;3.30;;;1.30;;
75698;SDS011;64313;51.018;13.742;2023-07-13T15:14:41;5.68;;;1.33;;